Buoy 44906

sailwx.info

Track history (hours):
 
Tides and Currents Weather Stations Pressure Air Temp Water Temp Dewpoint Dewpoint Depression Visibility Wind Speed Wind Dir Waves Ship Positions

Drifting buoy 44906

Last reported at 2017-Sep-23 20:00 UTC. Time now 2017-Sep-23 21:47 UTC.
Position N 36°41' W 031°26'.

Water temperature 24.2 ° C

Date/timePositionNaut miles runAvg speedWind from/ knotsBaromVisibWave heightAir tempDewpointWater temp
2017-Sep-23 20:00N 36°41' W 031°26'1 1.1 24.2
2017-Sep-23 19:00N 36°42' W 031°25'1 1.1 24.3
2017-Sep-23 18:00N 36°43' W 031°26'1 1.1 24.2
2017-Sep-23 17:00N 36°43' W 031°28'1 0.8 24.3
2017-Sep-23 16:00N 36°43' W 031°28'2 0.5 24.4
2017-Sep-23 12:00N 36°41' W 031°30'2 1.5 24.3
2017-Sep-23 11:00N 36°40' W 031°31'0 0.0 24.1
2017-Sep-23 10:00N 36°40' W 031°31'2 1.5 24.1
2017-Sep-23 09:00N 36°39' W 031°30'2 2.0 24.1
2017-Sep-23 08:00N 36°40' W 031°28'0 0.0 24.1
2017-Sep-23 07:00N 36°40' W 031°28'1 0.8 24.1
2017-Sep-23 06:00N 36°39' W 031°28'0 0.5 24.1
2017-Sep-23 05:00N 36°39' W 031°28'0 0.0 24.1
2017-Sep-23 04:00N 36°39' W 031°28'1 0.2 24.1
2017-Sep-22 23:00N 36°40' W 031°27'0 0.5 24.2
2017-Sep-22 22:00N 36°40' W 031°26'1 1.1 24.2
2017-Sep-22 21:00N 36°40' W 031°28'0 0.0 24.2
2017-Sep-22 20:00N 36°40' W 031°28'1 1.0 24.2
2017-Sep-22 19:00N 36°40' W 031°26'2 2.4 24.2
2017-Sep-22 18:00N 36°40' W 031°29'0 0.0 24.3
2017-Sep-22 17:00N 36°40' W 031°29'0 0.0 24.4
2017-Sep-22 16:00N 36°40' W 031°29'3 1.0 24.3
2017-Sep-22 13:00N 36°40' W 031°33'1 0.8 24.2
2017-Sep-22 12:00N 36°39' W 031°32'0 0.5 24.2
2017-Sep-22 11:00N 36°39' W 031°32'1 1.3 24.2
2017-Sep-22 10:00N 36°38' W 031°32'0 0.0 24.2
2017-Sep-22 09:00N 36°38' W 031°32'2 2.0 24.2
2017-Sep-22 08:00N 36°38' W 031°30'0 0.5 24.2
2017-Sep-22 07:00N 36°38' W 031°31'1 0.8 24.2
2017-Sep-22 06:00N 36°39' W 031°31'0 0.0 24.3
2017-Sep-22 05:00N 36°39' W 031°31'0 0.0 24.3
2017-Sep-22 04:00N 36°39' W 031°31'3 0.7 24.3
2017-Sep-22 00:00N 36°40' W 031°35'2 1.9 24.4
2017-Sep-21 23:00N 36°40' W 031°32'2 2.3 24.4
2017-Sep-21 22:00N 36°38' W 031°35'1 0.6 24.4
2017-Sep-21 20:00N 36°39' W 031°34'1 1.1 24.4
2017-Sep-21 19:00N 36°38' W 031°35'0 0.5 24.4
2017-Sep-21 18:00N 36°38' W 031°34'0 0.2 24.5
2017-Sep-21 16:00N 36°38' W 031°35'1 0.5 24.5
2017-Sep-21 13:00N 36°38' W 031°37'1 1.3 24.4
2017-Sep-21 12:00N 36°37' W 031°36'1 1.4 24.4
2017-Sep-21 11:00N 36°37' W 031°34'1 1.3 24.4
2017-Sep-21 10:00N 36°36' W 031°34'0 0.0 24.4
2017-Sep-21 09:00N 36°36' W 031°34'0 0.0 24.4
2017-Sep-21 08:00N 36°36' W 031°34'0 0.0 24.4
2017-Sep-21 07:00N 36°36' W 031°34'1 0.6 24.3
2017-Sep-21 06:00N 36°37' W 031°34'1 1.1 24.4
2017-Sep-21 05:00N 36°36' W 031°35'2 1.6 24.3
2017-Sep-21 04:00N 36°37' W 031°33'2 0.4 24.4
2017-Sep-21 00:00N 36°36' W 031°35'0 0.5 24.4
2017-Sep-20 23:00N 36°36' W 031°34'1 0.8 24.4
2017-Sep-20 22:00N 36°35' W 031°34'1 0.8 24.4
2017-Sep-20 21:00N 36°35' W 031°33'0 0.0 24.4
2017-Sep-20 20:00N 36°35' W 031°33'1 0.8 24.4
2017-Sep-20 19:00N 36°34' W 031°32'2 2.3 24.4
2017-Sep-20 18:00N 36°35' W 031°30'0 0.0 24.4
2017-Sep-20 17:00N 36°35' W 031°30'0 0.0 24.5
2017-Sep-20 16:00N 36°35' W 031°30'0 0.0 24.5
2017-Sep-20 15:00N 36°35' W 031°30'2 2.3 24.5
2017-Sep-20 14:00N 36°37' W 031°32'2 0.8 24.5
2017-Sep-20 12:00N 36°36' W 031°31'1 1.1 24.5
2017-Sep-20 11:00N 36°35' W 031°32'1 0.8 24.4
2017-Sep-20 10:00N 36°35' W 031°31'0 0.2 24.4
2017-Sep-20 08:00N 36°35' W 031°32'1 1.0 24.4
2017-Sep-20 07:00N 36°35' W 031°31'1 0.6 24.4
2017-Sep-20 06:00N 36°35' W 031°31'2 1.5 24.4
2017-Sep-20 05:00N 36°37' W 031°32'2 1.9 24.4
2017-Sep-20 04:00N 36°35' W 031°30'2 0.5 24.4
2017-Sep-20 00:00N 36°37' W 031°32'1 1.1 24.4
2017-Sep-19 23:00N 36°36' W 031°33'0 0.5 24.3
2017-Sep-19 22:00N 36°36' W 031°32'1 0.8 24.4
2017-Sep-19 21:00N 36°35' W 031°33'1 1.0 24.4
2017-Sep-19 20:00N 36°35' W 031°32'0 0.0 24.4
2017-Sep-19 19:00N 36°35' W 031°32'1 0.8 24.4
2017-Sep-19 18:00N 36°36' W 031°32'0 0.5 24.5
2017-Sep-19 17:00N 36°36' W 031°33'0 0.0 24.5
2017-Sep-19 16:00N 36°36' W 031°33'1 1.1 24.5
2017-Sep-19 15:00N 36°37' W 031°34'0 0.2 24.6
2017-Sep-19 12:00N 36°37' W 031°34'1 1.1 24.5
2017-Sep-19 11:00N 36°36' W 031°35'0 0.0 24.4
2017-Sep-19 10:00N 36°36' W 031°35'0 0.0 24.4
2017-Sep-19 09:00N 36°36' W 031°35'1 1.1 24.4
2017-Sep-19 08:00N 36°35' W 031°34'0 0.0 24.4
2017-Sep-19 07:00N 36°35' W 031°34'2 1.2 24.3
2017-Sep-19 05:00N 36°36' W 031°37'0 0.0 24.4
2017-Sep-19 00:00N 36°36' W 031°37'1 0.6 24.3
2017-Sep-18 23:00N 36°35' W 031°37'1 0.8 24.3
2017-Sep-18 22:00N 36°36' W 031°37'1 1.2 24.3
2017-Sep-18 21:00N 36°35' W 031°37'1 1.1 24.4
2017-Sep-18 20:00N 36°34' W 031°36'1 1.1 24.4
2017-Sep-18 19:00N 36°35' W 031°37'1 1.3 24.4
2017-Sep-18 18:00N 36°34' W 031°37'0 0.0 24.4
2017-Sep-18 17:00N 36°34' W 031°37'0 0.5 24.4
2017-Sep-18 16:00N 36°34' W 031°37'1 0.3 24.4
2017-Sep-18 13:00N 36°34' W 031°37'1 1.0 24.3
2017-Sep-18 12:00N 36°34' W 031°38'0 0.5 24.3
2017-Sep-18 11:00N 36°34' W 031°37'2 1.6 24.2
2017-Sep-18 10:00N 36°35' W 031°39'1 1.3 24.2
2017-Sep-18 09:00N 36°34' W 031°38'0 0.0 24.2
2017-Sep-18 08:00N 36°34' W 031°38'1 1.3 24.2
2017-Sep-18 07:00N 36°32' W 031°38'0 0.0 24.3
2017-Sep-18 06:00N 36°32' W 031°38'0 0.0 24.3
2017-Sep-18 05:00N 36°32' W 031°38'0 0.0 24.3
2017-Sep-18 04:00N 36°32' W 031°38'0 0.0 24.3
2017-Sep-18 03:00N 36°32' W 031°38'1 0.3 24.3
2017-Sep-18 00:00N 36°32' W 031°38'1 1.0 24.4
2017-Sep-17 23:00N 36°32' W 031°37'1 0.6 24.4
2017-Sep-17 22:00N 36°32' W 031°37'0 0.0 24.4
2017-Sep-17 21:00N 36°32' W 031°37'0 0.0 24.4
2017-Sep-17 20:00N 36°32' W 031°37'0 0.0 24.5
2017-Sep-17 19:00N 36°32' W 031°37'1 0.8 24.5
2017-Sep-17 18:00N 36°32' W 031°38'0 0.0 24.6
2017-Sep-17 17:00N 36°32' W 031°38'1 0.6 24.7
2017-Sep-17 15:00N 36°31' W 031°39'0 0.0 24.7
2017-Sep-17 13:00N 36°31' W 031°39'1 1.1 24.6
2017-Sep-17 12:00N 36°31' W 031°40'0 0.5 24.6
2017-Sep-17 11:00N 36°31' W 031°40'1 0.6 24.5
2017-Sep-17 10:00N 36°30' W 031°40'1 1.0 24.5
2017-Sep-17 09:00N 36°30' W 031°41'0 0.0 24.5
2017-Sep-17 08:00N 36°30' W 031°41'1 0.8 24.5
2017-Sep-17 07:00N 36°29' W 031°40'1 0.6 24.5
2017-Sep-17 06:00N 36°29' W 031°40'0 0.0 24.5
2017-Sep-17 05:00N 36°29' W 031°40'1 0.8 24.5
2017-Sep-17 04:00N 36°28' W 031°41'0 0.0 24.5
2017-Sep-17 03:00N 36°28' W 031°41'1 0.5 24.5
2017-Sep-17 00:00N 36°28' W 031°39'1 1.1 24.5
2017-Sep-16 23:00N 36°29' W 031°38'1 1.0 24.5
2017-Sep-16 22:00N 36°29' W 031°39'0 0.5 24.5
2017-Sep-16 21:00N 36°29' W 031°38'1 1.2 24.5
2017-Sep-16 20:00N 36°30' W 031°38'0 0.0 24.6
2017-Sep-16 19:00N 36°30' W 031°38'1 1.1 24.6
2017-Sep-16 18:00N 36°29' W 031°40'0 0.5 24.6
2017-Sep-16 17:00N 36°29' W 031°40'0 0.0 24.6
2017-Sep-16 16:00N 36°29' W 031°40'1 0.8 24.6
2017-Sep-16 15:00N 36°29' W 031°41'2 1.0 24.6
2017-Sep-16 13:00N 36°29' W 031°43'2 1.5 24.6
2017-Sep-16 12:00N 36°28' W 031°42'1 1.2 24.6
2017-Sep-16 11:00N 36°26' W 031°42'0 0.0 24.5
2017-Sep-16 10:00N 36°26' W 031°42'1 0.8 24.5
2017-Sep-16 09:00N 36°26' W 031°43'0 0.5 24.5
2017-Sep-16 08:00N 36°26' W 031°42'0 0.5 24.7
2017-Sep-16 07:00N 36°26' W 031°41'1 1.1 24.7
2017-Sep-16 06:00N 36°25' W 031°43'1 0.6 24.7
2017-Sep-16 05:00N 36°26' W 031°43'1 0.6 24.7
2017-Sep-16 04:00N 36°25' W 031°43'0 0.0 24.7
2017-Sep-16 00:00N 36°25' W 031°43'0 0.5 24.7
2017-Sep-15 23:00N 36°25' W 031°42'2 1.6 24.7
2017-Sep-15 22:00N 36°25' W 031°44'2 1.6 24.7
2017-Sep-15 21:00N 36°24' W 031°42'0 0.0 24.7
2017-Sep-15 20:00N 36°24' W 031°42'1 1.0 24.8
2017-Sep-15 19:00N 36°24' W 031°43'0 0.5 24.8
2017-Sep-15 18:00N 36°24' W 031°44'0 0.0 24.8
2017-Sep-15 17:00N 36°24' W 031°44'0 0.0 24.8
2017-Sep-15 16:00N 36°24' W 031°44'0 0.0 24.8
2017-Sep-15 15:00N 36°24' W 031°44'1 0.3 24.8
2017-Sep-15 12:00N 36°23' W 031°44'1 1.1 24.8
2017-Sep-15 11:00N 36°23' W 031°46'0 0.5 24.8
2017-Sep-15 10:00N 36°23' W 031°45'1 1.3 24.8
2017-Sep-15 09:00N 36°22' W 031°46'0 0.0 24.8
2017-Sep-15 08:00N 36°22' W 031°46'1 0.6 24.8
2017-Sep-15 07:00N 36°21' W 031°46'0 0.5 24.8
2017-Sep-15 06:00N 36°21' W 031°46'0 0.0 24.8
2017-Sep-15 05:00N 36°21' W 031°46'1 0.8 24.8
2017-Sep-15 04:00N 36°20' W 031°47'0 0.0 24.8
2017-Sep-15 00:00N 36°20' W 031°47'1 0.6 24.9
2017-Sep-14 23:00N 36°20' W 031°47'0 0.5 24.9
2017-Sep-14 22:00N 36°20' W 031°47'1 1.1 24.9
2017-Sep-14 21:00N 36°19' W 031°46'0 0.0 24.9
2017-Sep-14 20:00N 36°19' W 031°46'0 0.5 24.9
2017-Sep-14 19:00N 36°19' W 031°47'1 0.8 24.9
2017-Sep-14 18:00N 36°19' W 031°47'0 0.0 24.9
2017-Sep-14 17:00N 36°19' W 031°47'2 2.3 24.9
2017-Sep-14 16:00N 36°20' W 031°49'3 0.7 24.9
2017-Sep-14 12:00N 36°19' W 031°47'2 1.6 24.8
2017-Sep-14 11:00N 36°18' W 031°49'1 1.1 24.8
2017-Sep-14 10:00N 36°17' W 031°47'1 1.0 24.8
2017-Sep-14 09:00N 36°17' W 031°49'1 0.6 24.8
2017-Sep-14 08:00N 36°17' W 031°49'0 0.0 24.8
2017-Sep-14 07:00N 36°17' W 031°49'1 0.6 24.8
2017-Sep-14 06:00N 36°16' W 031°49'1 1.0 24.8
2017-Sep-14 05:00N 36°16' W 031°50'0 0.0 24.8
2017-Sep-14 04:00N 36°16' W 031°50'0 0.0 24.8
2017-Sep-14 00:00N 36°16' W 031°50'0 0.0 24.9
2017-Sep-13 23:00N 36°16' W 031°50'0 0.0 24.9
2017-Sep-13 22:00N 36°16' W 031°50'1 0.8 24.9
2017-Sep-13 21:00N 36°16' W 031°50'   24.9
Track history (hours):
 
Tides and Currents Weather Stations Pressure Air Temp Water Temp Dewpoint Dewpoint Depression Visibility Wind Speed Wind Dir Waves Ship Positions

Drifting buoy 44906

Last reported at 2017-Sep-23 20:00 UTC. Time now 2017-Sep-23 21:47 UTC.
Position N 36°41' W 031°26'.

Water temperature 24.2 ° C

Date/timePositionNaut miles runAvg speedWind from/ knotsBaromVisibWave heightAir tempDewpointWater temp
2017-Sep-23 20:00N 36°41' W 031°26'1 1.1 24.2
2017-Sep-23 19:00N 36°42' W 031°25'1 1.1 24.3
2017-Sep-23 18:00N 36°43' W 031°26'1 1.1 24.2
2017-Sep-23 17:00N 36°43' W 031°28'1 0.8 24.3
2017-Sep-23 16:00N 36°43' W 031°28'2 0.5 24.4
2017-Sep-23 12:00N 36°41' W 031°30'2 1.5 24.3
2017-Sep-23 11:00N 36°40' W 031°31'0 0.0 24.1
2017-Sep-23 10:00N 36°40' W 031°31'2 1.5 24.1
2017-Sep-23 09:00N 36°39' W 031°30'2 2.0 24.1
2017-Sep-23 08:00N 36°40' W 031°28'0 0.0 24.1
2017-Sep-23 07:00N 36°40' W 031°28'1 0.8 24.1
2017-Sep-23 06:00N 36°39' W 031°28'0 0.5 24.1
2017-Sep-23 05:00N 36°39' W 031°28'0 0.0 24.1
2017-Sep-23 04:00N 36°39' W 031°28'1 0.2 24.1
2017-Sep-22 23:00N 36°40' W 031°27'0 0.5 24.2
2017-Sep-22 22:00N 36°40' W 031°26'1 1.1 24.2
2017-Sep-22 21:00N 36°40' W 031°28'0 0.0 24.2
2017-Sep-22 20:00N 36°40' W 031°28'1 1.0 24.2
2017-Sep-22 19:00N 36°40' W 031°26'2 2.4 24.2
2017-Sep-22 18:00N 36°40' W 031°29'0 0.0 24.3
2017-Sep-22 17:00N 36°40' W 031°29'0 0.0 24.4
2017-Sep-22 16:00N 36°40' W 031°29'3 1.0 24.3
2017-Sep-22 13:00N 36°40' W 031°33'1 0.8 24.2
2017-Sep-22 12:00N 36°39' W 031°32'0 0.5 24.2
2017-Sep-22 11:00N 36°39' W 031°32'1 1.3 24.2
2017-Sep-22 10:00N 36°38' W 031°32'0 0.0 24.2
2017-Sep-22 09:00N 36°38' W 031°32'2 2.0 24.2
2017-Sep-22 08:00N 36°38' W 031°30'0 0.5 24.2
2017-Sep-22 07:00N 36°38' W 031°31'1 0.8 24.2
2017-Sep-22 06:00N 36°39' W 031°31'0 0.0 24.3
2017-Sep-22 05:00N 36°39' W 031°31'0 0.0 24.3
2017-Sep-22 04:00N 36°39' W 031°31'3 0.7 24.3
2017-Sep-22 00:00N 36°40' W 031°35'2 1.9 24.4
2017-Sep-21 23:00N 36°40' W 031°32'2 2.3 24.4
2017-Sep-21 22:00N 36°38' W 031°35'1 0.6 24.4
2017-Sep-21 20:00N 36°39' W 031°34'1 1.1 24.4
2017-Sep-21 19:00N 36°38' W 031°35'0 0.5 24.4
2017-Sep-21 18:00N 36°38' W 031°34'0 0.2 24.5
2017-Sep-21 16:00N 36°38' W 031°35'1 0.5 24.5
2017-Sep-21 13:00N 36°38' W 031°37'1 1.3 24.4
2017-Sep-21 12:00N 36°37' W 031°36'1 1.4 24.4
2017-Sep-21 11:00N 36°37' W 031°34'1 1.3 24.4
2017-Sep-21 10:00N 36°36' W 031°34'0 0.0 24.4
2017-Sep-21 09:00N 36°36' W 031°34'0 0.0 24.4
2017-Sep-21 08:00N 36°36' W 031°34'0 0.0 24.4
2017-Sep-21 07:00N 36°36' W 031°34'1 0.6 24.3
2017-Sep-21 06:00N 36°37' W 031°34'1 1.1 24.4
2017-Sep-21 05:00N 36°36' W 031°35'2 1.6 24.3
2017-Sep-21 04:00N 36°37' W 031°33'2 0.4 24.4
2017-Sep-21 00:00N 36°36' W 031°35'0 0.5 24.4
2017-Sep-20 23:00N 36°36' W 031°34'1 0.8 24.4
2017-Sep-20 22:00N 36°35' W 031°34'1 0.8 24.4
2017-Sep-20 21:00N 36°35' W 031°33'0 0.0 24.4
2017-Sep-20 20:00N 36°35' W 031°33'1 0.8 24.4
2017-Sep-20 19:00N 36°34' W 031°32'2 2.3 24.4
2017-Sep-20 18:00N 36°35' W 031°30'0 0.0 24.4
2017-Sep-20 17:00N 36°35' W 031°30'0 0.0 24.5
2017-Sep-20 16:00N 36°35' W 031°30'0 0.0 24.5
2017-Sep-20 15:00N 36°35' W 031°30'2 2.3 24.5
2017-Sep-20 14:00N 36°37' W 031°32'2 0.8 24.5
2017-Sep-20 12:00N 36°36' W 031°31'1 1.1 24.5
2017-Sep-20 11:00N 36°35' W 031°32'1 0.8 24.4
2017-Sep-20 10:00N 36°35' W 031°31'0 0.2 24.4
2017-Sep-20 08:00N 36°35' W 031°32'1 1.0 24.4
2017-Sep-20 07:00N 36°35' W 031°31'1 0.6 24.4
2017-Sep-20 06:00N 36°35' W 031°31'2 1.5 24.4
2017-Sep-20 05:00N 36°37' W 031°32'2 1.9 24.4
2017-Sep-20 04:00N 36°35' W 031°30'2 0.5 24.4
2017-Sep-20 00:00N 36°37' W 031°32'1 1.1 24.4
2017-Sep-19 23:00N 36°36' W 031°33'0 0.5 24.3
2017-Sep-19 22:00N 36°36' W 031°32'1 0.8 24.4
2017-Sep-19 21:00N 36°35' W 031°33'1 1.0 24.4
2017-Sep-19 20:00N 36°35' W 031°32'0 0.0 24.4
2017-Sep-19 19:00N 36°35' W 031°32'1 0.8 24.4
2017-Sep-19 18:00N 36°36' W 031°32'0 0.5 24.5
2017-Sep-19 17:00N 36°36' W 031°33'0 0.0 24.5
2017-Sep-19 16:00N 36°36' W 031°33'1 1.1 24.5
2017-Sep-19 15:00N 36°37' W 031°34'0 0.2 24.6
2017-Sep-19 12:00N 36°37' W 031°34'1 1.1 24.5
2017-Sep-19 11:00N 36°36' W 031°35'0 0.0 24.4
2017-Sep-19 10:00N 36°36' W 031°35'0 0.0 24.4
2017-Sep-19 09:00N 36°36' W 031°35'1 1.1 24.4
2017-Sep-19 08:00N 36°35' W 031°34'0 0.0 24.4
2017-Sep-19 07:00N 36°35' W 031°34'2 1.2 24.3
2017-Sep-19 05:00N 36°36' W 031°37'0 0.0 24.4
2017-Sep-19 00:00N 36°36' W 031°37'1 0.6 24.3
2017-Sep-18 23:00N 36°35' W 031°37'1 0.8 24.3
2017-Sep-18 22:00N 36°36' W 031°37'1 1.2 24.3
2017-Sep-18 21:00N 36°35' W 031°37'1 1.1 24.4
2017-Sep-18 20:00N 36°34' W 031°36'1 1.1 24.4
2017-Sep-18 19:00N 36°35' W 031°37'1 1.3 24.4
2017-Sep-18 18:00N 36°34' W 031°37'0 0.0 24.4
2017-Sep-18 17:00N 36°34' W 031°37'0 0.5 24.4
2017-Sep-18 16:00N 36°34' W 031°37'1 0.3 24.4
2017-Sep-18 13:00N 36°34' W 031°37'1 1.0 24.3
2017-Sep-18 12:00N 36°34' W 031°38'0 0.5 24.3
2017-Sep-18 11:00N 36°34' W 031°37'2 1.6 24.2
2017-Sep-18 10:00N 36°35' W 031°39'1 1.3 24.2
2017-Sep-18 09:00N 36°34' W 031°38'0 0.0 24.2
2017-Sep-18 08:00N 36°34' W 031°38'1 1.3 24.2
2017-Sep-18 07:00N 36°32' W 031°38'0 0.0 24.3
2017-Sep-18 06:00N 36°32' W 031°38'0 0.0 24.3
2017-Sep-18 05:00N 36°32' W 031°38'0 0.0 24.3
2017-Sep-18 04:00N 36°32' W 031°38'0 0.0 24.3
2017-Sep-18 03:00N 36°32' W 031°38'1 0.3 24.3
2017-Sep-18 00:00N 36°32' W 031°38'1 1.0 24.4
2017-Sep-17 23:00N 36°32' W 031°37'1 0.6 24.4
2017-Sep-17 22:00N 36°32' W 031°37'0 0.0 24.4
2017-Sep-17 21:00N 36°32' W 031°37'0 0.0 24.4
2017-Sep-17 20:00N 36°32' W 031°37'0 0.0 24.5
2017-Sep-17 19:00N 36°32' W 031°37'1 0.8 24.5
2017-Sep-17 18:00N 36°32' W 031°38'0 0.0 24.6
2017-Sep-17 17:00N 36°32' W 031°38'1 0.6 24.7
2017-Sep-17 15:00N 36°31' W 031°39'0 0.0 24.7
2017-Sep-17 13:00N 36°31' W 031°39'1 1.1 24.6
2017-Sep-17 12:00N 36°31' W 031°40'0 0.5 24.6
2017-Sep-17 11:00N 36°31' W 031°40'1 0.6 24.5
2017-Sep-17 10:00N 36°30' W 031°40'1 1.0 24.5
2017-Sep-17 09:00N 36°30' W 031°41'0 0.0 24.5
2017-Sep-17 08:00N 36°30' W 031°41'1 0.8 24.5
2017-Sep-17 07:00N 36°29' W 031°40'1 0.6 24.5
2017-Sep-17 06:00N 36°29' W 031°40'0 0.0 24.5
2017-Sep-17 05:00N 36°29' W 031°40'1 0.8 24.5
2017-Sep-17 04:00N 36°28' W 031°41'0 0.0 24.5
2017-Sep-17 03:00N 36°28' W 031°41'1 0.5 24.5
2017-Sep-17 00:00N 36°28' W 031°39'1 1.1 24.5
2017-Sep-16 23:00N 36°29' W 031°38'1 1.0 24.5
2017-Sep-16 22:00N 36°29' W 031°39'0 0.5 24.5
2017-Sep-16 21:00N 36°29' W 031°38'1 1.2 24.5
2017-Sep-16 20:00N 36°30' W 031°38'0 0.0 24.6
2017-Sep-16 19:00N 36°30' W 031°38'1 1.1 24.6
2017-Sep-16 18:00N 36°29' W 031°40'0 0.5 24.6
2017-Sep-16 17:00N 36°29' W 031°40'0 0.0 24.6
2017-Sep-16 16:00N 36°29' W 031°40'1 0.8 24.6
2017-Sep-16 15:00N 36°29' W 031°41'2 1.0 24.6
2017-Sep-16 13:00N 36°29' W 031°43'2 1.5 24.6
2017-Sep-16 12:00N 36°28' W 031°42'1 1.2 24.6
2017-Sep-16 11:00N 36°26' W 031°42'0 0.0 24.5
2017-Sep-16 10:00N 36°26' W 031°42'1 0.8 24.5
2017-Sep-16 09:00N 36°26' W 031°43'0 0.5 24.5
2017-Sep-16 08:00N 36°26' W 031°42'0 0.5 24.7
2017-Sep-16 07:00N 36°26' W 031°41'1 1.1 24.7
2017-Sep-16 06:00N 36°25' W 031°43'1 0.6 24.7
2017-Sep-16 05:00N 36°26' W 031°43'1 0.6 24.7
2017-Sep-16 04:00N 36°25' W 031°43'0 0.0 24.7
2017-Sep-16 00:00N 36°25' W 031°43'0 0.5 24.7
2017-Sep-15 23:00N 36°25' W 031°42'2 1.6 24.7
2017-Sep-15 22:00N 36°25' W 031°44'2 1.6 24.7
2017-Sep-15 21:00N 36°24' W 031°42'0 0.0 24.7
2017-Sep-15 20:00N 36°24' W 031°42'1 1.0 24.8
2017-Sep-15 19:00N 36°24' W 031°43'0 0.5 24.8
2017-Sep-15 18:00N 36°24' W 031°44'0 0.0 24.8
2017-Sep-15 17:00N 36°24' W 031°44'0 0.0 24.8
2017-Sep-15 16:00N 36°24' W 031°44'0 0.0 24.8
2017-Sep-15 15:00N 36°24' W 031°44'1 0.3 24.8
2017-Sep-15 12:00N 36°23' W 031°44'1 1.1 24.8
2017-Sep-15 11:00N 36°23' W 031°46'0 0.5 24.8
2017-Sep-15 10:00N 36°23' W 031°45'1 1.3 24.8
2017-Sep-15 09:00N 36°22' W 031°46'0 0.0 24.8
2017-Sep-15 08:00N 36°22' W 031°46'1 0.6 24.8
2017-Sep-15 07:00N 36°21' W 031°46'0 0.5 24.8
2017-Sep-15 06:00N 36°21' W 031°46'0 0.0 24.8
2017-Sep-15 05:00N 36°21' W 031°46'1 0.8 24.8
2017-Sep-15 04:00N 36°20' W 031°47'0 0.0 24.8
2017-Sep-15 00:00N 36°20' W 031°47'1 0.6 24.9
2017-Sep-14 23:00N 36°20' W 031°47'0 0.5 24.9
2017-Sep-14 22:00N 36°20' W 031°47'1 1.1 24.9
2017-Sep-14 21:00N 36°19' W 031°46'0 0.0 24.9
2017-Sep-14 20:00N 36°19' W 031°46'0 0.5 24.9
2017-Sep-14 19:00N 36°19' W 031°47'1 0.8 24.9
2017-Sep-14 18:00N 36°19' W 031°47'0 0.0 24.9
2017-Sep-14 17:00N 36°19' W 031°47'2 2.3 24.9
2017-Sep-14 16:00N 36°20' W 031°49'3 0.7 24.9
2017-Sep-14 12:00N 36°19' W 031°47'2 1.6 24.8
2017-Sep-14 11:00N 36°18' W 031°49'1 1.1 24.8
2017-Sep-14 10:00N 36°17' W 031°47'1 1.0 24.8
2017-Sep-14 09:00N 36°17' W 031°49'1 0.6 24.8
2017-Sep-14 08:00N 36°17' W 031°49'0 0.0 24.8
2017-Sep-14 07:00N 36°17' W 031°49'1 0.6 24.8
2017-Sep-14 06:00N 36°16' W 031°49'1 1.0 24.8
2017-Sep-14 05:00N 36°16' W 031°50'0 0.0 24.8
2017-Sep-14 04:00N 36°16' W 031°50'0 0.0 24.8
2017-Sep-14 00:00N 36°16' W 031°50'0 0.0 24.9
2017-Sep-13 23:00N 36°16' W 031°50'0 0.0 24.9
2017-Sep-13 22:00N 36°16' W 031°50'1 0.8 24.9
2017-Sep-13 21:00N 36°16' W 031°50'   24.9

Dump ship's entire track history